createdAt,value
2023-04-18T00:03:53.835Z,615.00
2023-04-18T00:07:53.695Z,614.00
2023-04-18T00:11:53.798Z,609.00
2023-04-18T00:15:53.865Z,613.00
2023-04-18T00:19:53.917Z,610.00
2023-04-18T00:25:39.736Z,500.00
2023-04-18T00:29:39.680Z,504.00
2023-04-18T00:33:39.696Z,509.00
2023-04-18T00:37:39.668Z,509.00
2023-04-18T00:41:39.635Z,507.00
2023-04-18T00:45:39.546Z,507.00
2023-04-18T00:49:39.546Z,507.00
2023-04-18T00:53:39.526Z,507.00
2023-04-18T00:57:39.433Z,506.00
2023-04-18T01:01:39.459Z,508.00
2023-04-18T01:05:39.401Z,500.00
2023-04-18T01:09:39.335Z,507.00
2023-04-18T01:13:39.303Z,505.00
2023-04-18T01:17:39.267Z,510.00
2023-04-18T01:21:39.220Z,503.00
2023-04-18T01:25:39.199Z,506.00
2023-04-18T01:29:39.187Z,500.00
2023-04-18T01:33:39.148Z,504.00
2023-04-18T01:37:39.105Z,504.00
2023-04-18T01:41:39.008Z,505.00
2023-04-18T01:45:39.010Z,507.00
2023-04-18T01:49:38.992Z,503.00
2023-04-18T01:53:38.924Z,504.00
2023-04-18T01:57:38.880Z,502.00
2023-04-18T02:01:38.873Z,501.00
2023-04-18T02:05:38.809Z,505.00
2023-04-18T02:09:38.742Z,503.00
2023-04-18T02:13:38.725Z,505.00
2023-04-18T02:17:38.718Z,503.00
2023-04-18T02:21:38.671Z,502.00
2023-04-18T02:25:38.633Z,502.00
2023-04-18T02:29:38.583Z,503.00
2023-04-18T02:33:38.550Z,506.00
2023-04-18T02:37:38.531Z,506.00
2023-04-18T02:41:38.526Z,504.00
2023-04-18T02:45:38.550Z,501.00
2023-04-18T02:49:38.383Z,503.00
2023-04-18T02:53:38.365Z,503.00
2023-04-18T02:57:38.316Z,500.00
2023-04-18T03:01:38.292Z,503.00
2023-04-18T03:05:38.210Z,504.00
2023-04-18T03:09:38.220Z,501.00
2023-04-18T03:13:38.183Z,502.00
2023-04-18T03:17:38.214Z,505.00
2023-04-18T03:21:38.107Z,503.00
2023-04-18T03:25:38.049Z,502.00
2023-04-18T03:29:37.992Z,502.00
2023-04-18T03:33:37.972Z,504.00
2023-04-18T03:37:37.935Z,501.00
2023-04-18T03:41:37.925Z,501.00
2023-04-18T03:45:37.916Z,501.00
2023-04-18T03:49:37.952Z,500.00
2023-04-18T03:53:37.929Z,503.00
2023-04-18T03:57:37.983Z,501.00
2023-04-18T04:01:38.016Z,501.00
2023-04-18T04:05:38.053Z,500.00
2023-04-18T04:09:38.086Z,506.00
2023-04-18T04:13:38.163Z,503.00
2023-04-18T04:17:38.303Z,502.00
2023-04-18T04:21:38.295Z,500.00
2023-04-18T04:25:38.308Z,501.00
2023-04-18T04:29:38.367Z,501.00
2023-04-18T04:33:38.434Z,507.00
2023-04-18T04:37:38.549Z,503.00
2023-04-18T04:41:38.560Z,502.00
2023-04-18T04:45:38.665Z,504.00
2023-04-18T04:49:38.698Z,501.00
2023-04-18T04:53:38.774Z,505.00
2023-04-18T04:57:38.862Z,507.00
2023-04-18T05:01:38.962Z,504.00
2023-04-18T05:05:39.021Z,506.00
2023-04-18T05:09:39.078Z,511.00
2023-04-18T05:13:39.163Z,512.00
2023-04-18T05:17:39.187Z,519.00
2023-04-18T05:21:39.161Z,518.00
2023-04-18T05:25:39.327Z,517.00
2023-04-18T05:29:39.332Z,512.00
2023-04-18T05:33:39.256Z,509.00
2023-04-18T05:37:39.210Z,507.00
2023-04-18T05:41:39.192Z,505.00
2023-04-18T05:45:39.345Z,505.00
2023-04-18T05:49:39.165Z,502.00
2023-04-18T05:53:39.109Z,503.00
2023-04-18T05:57:39.060Z,500.00
2023-04-18T06:01:39.002Z,502.00
2023-04-18T06:05:39.076Z,509.00
2023-04-18T06:09:38.942Z,507.00
2023-04-18T06:13:38.874Z,503.00
2023-04-18T06:17:38.970Z,511.00
2023-04-18T06:21:38.808Z,507.00
2023-04-18T06:25:38.809Z,507.00
2023-04-18T06:29:38.758Z,506.00
2023-04-18T06:33:38.693Z,508.00
2023-04-18T06:37:38.652Z,509.00
2023-04-18T06:41:38.647Z,508.00
2023-04-18T06:45:38.645Z,513.00
2023-04-18T06:49:38.713Z,511.00
2023-04-18T06:53:38.526Z,512.00
2023-04-18T06:57:38.521Z,511.00
2023-04-18T07:01:38.537Z,507.00
2023-04-18T07:05:38.403Z,513.00
2023-04-18T07:09:38.385Z,509.00
2023-04-18T07:13:38.531Z,511.00
2023-04-18T07:17:38.530Z,506.00
2023-04-18T07:21:38.398Z,515.00
2023-04-18T07:25:38.355Z,505.00
2023-04-18T07:29:38.306Z,510.00
2023-04-18T07:33:38.321Z,512.00
2023-04-18T07:37:38.270Z,514.00
2023-04-18T07:41:38.226Z,510.00
2023-04-18T07:45:38.162Z,510.00
2023-04-18T07:49:38.145Z,510.00
2023-04-18T07:53:38.417Z,552.00
2023-04-18T07:57:38.492Z,592.00
2023-04-18T08:01:38.583Z,653.00
2023-04-18T08:05:38.722Z,738.00
2023-04-18T08:09:38.907Z,868.00
2023-04-18T08:13:38.737Z,974.00
2023-04-18T08:17:38.720Z,1066.00
2023-04-18T08:21:38.681Z,1163.00
2023-04-18T08:25:38.745Z,1211.00
2023-04-18T08:29:38.601Z,1264.00
2023-04-18T08:33:38.562Z,1328.00
2023-04-18T08:37:38.562Z,1387.00
2023-04-18T08:41:38.516Z,1463.00
2023-04-18T08:45:38.559Z,1524.00
2023-04-18T08:49:38.414Z,1539.00
2023-04-18T08:53:38.379Z,1682.00
2023-04-18T08:57:38.327Z,1784.00
2023-04-18T09:01:38.320Z,592.00
2023-04-18T09:05:38.229Z,500.00
2023-04-18T09:09:38.338Z,500.00
2023-04-18T09:13:38.505Z,511.00
2023-04-18T09:17:38.293Z,500.00
2023-04-18T09:21:38.263Z,547.00
2023-04-18T09:25:40.056Z,566.00
2023-04-18T09:29:38.155Z,517.00
2023-04-18T09:33:38.092Z,538.00
2023-04-18T09:37:38.062Z,501.00
2023-04-18T09:41:38.023Z,521.00
2023-04-18T09:45:37.995Z,606.00
2023-04-18T09:49:37.941Z,603.00
2023-04-18T09:53:37.913Z,1111.00
2023-04-18T09:57:37.899Z,944.00
2023-04-18T10:01:37.867Z,823.00
2023-04-18T10:05:38.059Z,655.00
2023-04-18T10:09:38.204Z,883.00
2023-04-18T10:13:38.297Z,1111.00
2023-04-18T10:17:38.356Z,1199.00
2023-04-18T10:21:38.385Z,1509.00
2023-04-18T10:25:38.699Z,1479.00
2023-04-18T10:29:38.542Z,1584.00
2023-04-18T10:33:41.999Z,1642.00
2023-04-18T10:37:38.482Z,1642.00
2023-04-18T10:41:38.442Z,1682.00
2023-04-18T10:45:38.409Z,1460.00
2023-04-18T10:49:39.300Z,1638.00
2023-04-18T10:53:38.301Z,1685.00
2023-04-18T10:57:38.306Z,1683.00
2023-04-18T11:01:38.263Z,1820.00
2023-04-18T11:05:38.268Z,1956.00
2023-04-18T11:09:38.262Z,2086.00
2023-04-18T11:13:38.239Z,2180.00
2023-04-18T11:17:38.216Z,2259.00
2023-04-18T11:21:38.145Z,2319.00
2023-04-18T11:25:38.123Z,2396.00
2023-04-18T11:29:38.103Z,2439.00
2023-04-18T11:33:38.053Z,2503.00
2023-04-18T11:37:38.042Z,2481.00
2023-04-18T11:41:37.960Z,1534.00
2023-04-18T11:45:37.963Z,508.00
2023-04-18T11:49:37.873Z,526.00
2023-04-18T11:53:37.904Z,522.00
2023-04-18T11:57:37.825Z,567.00
2023-04-18T12:01:37.833Z,579.00
2023-04-18T12:07:35.004Z,500.00
2023-04-18T12:11:34.952Z,513.00
2023-04-18T12:15:34.920Z,510.00
2023-04-18T12:19:42.225Z,529.00
2023-04-18T12:23:34.826Z,527.00
2023-04-18T12:27:34.790Z,509.00
2023-04-18T12:31:34.781Z,505.00
2023-04-18T12:35:34.755Z,520.00
2023-04-18T12:39:34.738Z,506.00
2023-04-18T12:43:34.648Z,504.00
2023-04-18T12:47:34.868Z,516.00
2023-04-18T12:51:42.034Z,512.00
2023-04-18T12:55:34.954Z,527.00
2023-04-18T12:59:34.963Z,533.00
2023-04-18T13:03:42.464Z,503.00
2023-04-18T13:07:34.873Z,533.00
2023-04-18T13:11:34.857Z,529.00
2023-04-18T13:15:34.878Z,531.00
2023-04-18T13:19:34.745Z,502.00
2023-04-18T13:23:34.743Z,551.00
2023-04-18T13:27:34.720Z,548.00
2023-04-18T13:31:34.708Z,546.00
2023-04-18T13:35:34.618Z,538.00
2023-04-18T13:39:34.569Z,545.00
2023-04-18T13:43:34.531Z,538.00
2023-04-18T13:47:30.154Z,500.00
2023-04-18T13:48:30.062Z,500.00
2023-04-18T13:49:30.061Z,500.00
2023-04-18T13:50:30.082Z,500.00
2023-04-18T13:51:30.064Z,500.00
2023-04-18T13:52:30.035Z,513.00
2023-04-18T13:53:31.039Z,517.00
2023-04-18T13:54:30.075Z,521.00
2023-04-18T13:55:30.001Z,537.00
2023-04-18T13:56:30.069Z,547.00
2023-04-18T13:57:30.028Z,562.00
2023-04-18T13:58:30.023Z,549.00
2023-04-18T13:59:30.003Z,549.00
2023-04-18T14:00:29.996Z,557.00
2023-04-18T14:01:29.979Z,545.00
2023-04-18T14:02:30.131Z,582.00
2023-04-18T14:03:30.469Z,616.00
2023-04-18T14:04:30.131Z,639.00
2023-04-18T14:05:29.960Z,618.00
2023-04-18T14:06:29.940Z,642.00
2023-04-18T14:07:29.956Z,661.00
2023-04-18T14:08:29.916Z,640.00
2023-04-18T14:09:29.948Z,631.00
2023-04-18T14:10:29.989Z,614.00
2023-04-18T14:11:29.915Z,634.00
2023-04-18T14:12:29.950Z,637.00
2023-04-18T14:13:30.011Z,656.00
2023-04-18T14:14:30.073Z,679.00
2023-04-18T14:15:30.182Z,676.00
2023-04-18T14:16:32.324Z,661.00
2023-04-18T14:17:30.258Z,683.00
2023-04-18T14:18:30.317Z,610.00
2023-04-18T14:19:30.363Z,611.00
2023-04-18T14:20:30.422Z,628.00
2023-04-18T14:21:30.472Z,613.00
2023-04-18T14:22:30.536Z,579.00
2023-04-18T14:23:30.587Z,594.00
2023-04-18T14:24:30.650Z,618.00
2023-04-18T14:25:30.710Z,613.00
2023-04-18T14:26:30.754Z,595.00
2023-04-18T14:27:30.830Z,578.00
2023-04-18T14:28:30.883Z,569.00
2023-04-18T14:29:30.945Z,560.00
2023-04-18T14:30:31.010Z,539.00
2023-04-18T14:31:31.118Z,562.00
2023-04-18T14:32:31.194Z,558.00
2023-04-18T14:33:31.192Z,563.00
2023-04-18T14:34:33.443Z,559.00
2023-04-18T14:35:31.239Z,569.00
2023-04-18T14:36:31.217Z,565.00
2023-04-18T14:37:31.250Z,568.00
2023-04-18T14:38:31.261Z,547.00
2023-04-18T14:39:31.234Z,561.00
2023-04-18T14:40:32.828Z,550.00
2023-04-18T14:41:31.185Z,561.00
2023-04-18T14:42:31.173Z,544.00
2023-04-18T14:43:31.255Z,539.00
2023-04-18T14:44:31.171Z,540.00
2023-04-18T14:45:31.179Z,542.00
2023-04-18T14:46:31.165Z,535.00
2023-04-18T14:47:31.208Z,531.00
2023-04-18T14:48:31.139Z,535.00
2023-04-18T14:49:31.147Z,553.00
2023-04-18T14:50:31.134Z,611.00
2023-04-18T14:51:38.105Z,604.00
2023-04-18T14:52:31.131Z,604.00
2023-04-18T14:53:31.120Z,605.00
2023-04-18T14:54:32.733Z,569.00
2023-04-18T14:55:31.133Z,536.00
2023-04-18T14:56:31.122Z,522.00
2023-04-18T14:57:31.078Z,525.00
2023-04-18T14:58:31.055Z,534.00
2023-04-18T14:59:31.077Z,512.00
2023-04-18T15:00:31.073Z,534.00
2023-04-18T15:01:31.049Z,515.00
2023-04-18T15:02:31.232Z,511.00
2023-04-18T15:03:31.174Z,555.00
2023-04-18T15:04:31.096Z,556.00
2023-04-18T15:05:31.037Z,575.00
2023-04-18T15:06:31.016Z,606.00
2023-04-18T15:07:31.021Z,608.00
2023-04-18T15:08:32.736Z,599.00
2023-04-18T15:09:30.992Z,606.00
2023-04-18T15:10:31.027Z,635.00
2023-04-18T15:11:30.969Z,694.00
2023-04-18T15:12:30.968Z,720.00
2023-04-18T15:13:31.015Z,740.00
2023-04-18T15:14:32.747Z,778.00
2023-04-18T15:15:30.954Z,803.00
2023-04-18T15:16:31.106Z,849.00
2023-04-18T15:17:30.997Z,876.00
2023-04-18T15:18:31.018Z,891.00
2023-04-18T15:19:30.992Z,955.00
2023-04-18T15:20:31.035Z,973.00
2023-04-18T15:21:31.008Z,996.00
2023-04-18T15:22:31.000Z,1017.00
2023-04-18T15:23:31.164Z,1069.00
2023-04-18T15:24:31.024Z,1077.00
2023-04-18T15:25:31.089Z,1097.00
2023-04-18T15:26:38.172Z,1145.00
2023-04-18T15:27:31.085Z,1147.00
2023-04-18T15:28:31.103Z,1155.00
2023-04-18T15:29:31.072Z,1180.00
2023-04-18T15:30:31.075Z,1200.00
2023-04-18T15:31:31.092Z,1253.00
2023-04-18T15:32:31.085Z,1281.00
2023-04-18T15:33:31.053Z,1292.00
2023-04-18T15:34:31.053Z,1324.00
2023-04-18T15:35:31.044Z,1341.00
2023-04-18T15:36:30.999Z,1375.00
2023-04-18T15:37:31.026Z,1396.00
2023-04-18T15:38:32.872Z,1408.00
2023-04-18T15:39:31.048Z,1438.00
2023-04-18T15:40:30.972Z,1411.00
2023-04-18T15:41:30.999Z,1467.00
2023-04-18T15:42:31.012Z,1514.00
2023-04-18T15:43:31.029Z,1527.00
2023-04-18T15:44:31.061Z,1547.00
2023-04-18T15:45:31.103Z,1543.00
2023-04-18T15:46:31.256Z,1590.00
2023-04-18T15:47:31.270Z,1611.00
2023-04-18T15:48:31.272Z,1619.00
2023-04-18T15:49:31.311Z,1621.00
2023-04-18T15:50:33.214Z,1633.00
2023-04-18T15:51:31.397Z,1657.00
2023-04-18T15:52:31.469Z,1687.00
2023-04-18T15:53:31.527Z,1699.00
2023-04-18T15:54:31.580Z,1697.00
2023-04-18T15:55:31.611Z,1724.00
2023-04-18T15:56:33.636Z,1701.00
2023-04-18T15:57:31.735Z,1726.00
2023-04-18T15:58:31.790Z,1705.00
2023-04-18T15:59:31.834Z,1704.00
2023-04-18T16:00:31.891Z,1689.00
2023-04-18T16:01:32.001Z,1685.00
2023-04-18T16:02:32.077Z,1653.00
2023-04-18T16:03:32.327Z,1651.00
2023-04-18T16:04:32.111Z,1637.00
2023-04-18T16:05:32.167Z,1615.00
2023-04-18T16:06:32.228Z,1637.00
2023-04-18T16:07:32.336Z,1617.00
2023-04-18T16:08:33.260Z,1683.00
2023-04-18T16:09:32.436Z,1729.00
2023-04-18T16:10:32.505Z,1785.00
2023-04-18T16:11:32.556Z,1807.00
2023-04-18T16:12:32.598Z,1817.00
2023-04-18T16:13:32.625Z,1831.00
2023-04-18T16:14:32.746Z,1783.00
2023-04-18T16:15:32.807Z,1816.00
2023-04-18T16:16:32.882Z,1774.00
2023-04-18T16:17:32.886Z,1814.00
2023-04-18T16:18:32.939Z,1781.00
2023-04-18T16:19:35.011Z,1764.00
2023-04-18T16:20:40.021Z,1767.00
2023-04-18T16:21:32.965Z,1768.00
2023-04-18T16:22:33.010Z,1774.00
2023-04-18T16:23:32.949Z,1770.00
2023-04-18T16:24:32.936Z,1795.00
2023-04-18T16:25:32.921Z,1766.00
2023-04-18T16:26:32.924Z,1808.00
2023-04-18T16:27:32.908Z,1836.00
2023-04-18T16:28:32.897Z,1834.00
2023-04-18T16:29:32.903Z,1880.00
2023-04-18T16:30:32.877Z,1905.00
2023-04-18T16:31:32.936Z,1859.00
2023-04-18T16:32:32.896Z,1888.00
2023-04-18T16:33:33.021Z,1839.00
2023-04-18T16:34:32.914Z,1820.00
2023-04-18T16:35:32.893Z,1760.00
2023-04-18T16:36:32.874Z,1829.00
2023-04-18T16:37:32.877Z,1802.00
2023-04-18T16:38:32.851Z,1819.00
2023-04-18T16:39:32.852Z,1798.00
2023-04-18T16:40:32.856Z,1806.00
2023-04-18T16:41:32.839Z,1854.00
2023-04-18T16:42:32.818Z,1862.00
2023-04-18T16:43:32.808Z,1895.00
2023-04-18T16:44:32.789Z,1930.00
2023-04-18T16:45:32.792Z,1898.00
2023-04-18T16:46:32.865Z,1928.00
2023-04-18T16:47:32.802Z,1927.00
2023-04-18T16:48:32.786Z,1936.00
2023-04-18T16:49:32.803Z,1915.00
2023-04-18T16:50:32.857Z,1904.00
2023-04-18T16:51:32.871Z,1881.00
2023-04-18T16:52:32.925Z,1814.00
2023-04-18T16:53:32.931Z,1821.00
2023-04-18T16:54:32.927Z,1830.00
2023-04-18T16:55:32.932Z,1751.00
2023-04-18T16:56:32.939Z,1737.00
2023-04-18T16:57:32.908Z,1733.00
2023-04-18T16:58:32.928Z,1707.00
2023-04-18T16:59:32.913Z,1654.00
2023-04-18T17:00:32.942Z,1611.00
2023-04-18T17:01:32.978Z,1629.00
2023-04-18T17:02:33.125Z,1629.00
2023-04-18T17:03:33.049Z,1591.00
2023-04-18T17:04:32.974Z,1559.00
2023-04-18T17:05:32.999Z,1597.00
2023-04-18T17:06:33.014Z,1636.00
2023-04-18T17:07:32.972Z,1576.00
2023-04-18T17:08:33.000Z,1523.00
2023-04-18T17:09:33.006Z,1580.00
2023-04-18T17:10:33.040Z,1568.00
2023-04-18T17:11:33.047Z,1564.00
2023-04-18T17:12:33.042Z,1540.00
2023-04-18T17:13:33.098Z,1537.00
2023-04-18T17:14:33.099Z,1503.00
2023-04-18T17:15:33.113Z,1488.00
2023-04-18T17:16:33.170Z,1504.00
2023-04-18T17:17:33.199Z,1539.00
2023-04-18T17:18:33.187Z,1444.00
2023-04-18T17:19:33.241Z,1392.00
2023-04-18T17:20:33.263Z,1424.00
2023-04-18T17:21:33.280Z,1450.00
2023-04-18T17:22:33.300Z,1404.00
2023-04-18T17:23:33.368Z,1469.00
2023-04-18T17:24:33.374Z,1484.00
2023-04-18T17:25:33.420Z,1446.00
2023-04-18T17:26:33.424Z,1384.00
2023-04-18T17:27:33.513Z,1396.00
2023-04-18T17:28:33.567Z,1402.00
2023-04-18T17:29:33.554Z,1408.00
2023-04-18T17:30:33.593Z,1397.00
2023-04-18T17:31:33.659Z,1383.00
2023-04-18T17:32:33.712Z,1382.00
2023-04-18T17:33:33.709Z,1414.00
2023-04-18T17:34:33.746Z,1410.00
2023-04-18T17:35:33.770Z,1387.00
2023-04-18T17:36:33.814Z,1352.00
2023-04-18T17:37:33.851Z,1343.00
2023-04-18T17:38:33.876Z,1338.00
2023-04-18T17:39:33.913Z,1347.00
2023-04-18T17:40:33.914Z,1315.00
2023-04-18T17:41:33.997Z,1332.00
2023-04-18T17:42:34.019Z,1323.00
2023-04-18T17:43:34.060Z,1281.00
2023-04-18T17:44:34.144Z,1310.00
2023-04-18T17:45:34.157Z,1313.00
2023-04-18T17:46:34.321Z,1274.00
2023-04-18T17:47:34.306Z,1270.00
2023-04-18T17:48:34.326Z,1291.00
2023-04-18T17:49:34.436Z,1275.00
2023-04-18T17:50:34.441Z,1276.00
2023-04-18T17:51:34.486Z,1262.00
2023-04-18T17:52:34.504Z,1244.00
2023-04-18T17:53:34.603Z,1227.00
2023-04-18T17:54:34.635Z,1233.00
2023-04-18T17:55:34.689Z,1208.00
2023-04-18T17:56:34.753Z,1233.00
2023-04-18T17:57:34.839Z,1223.00
2023-04-18T17:58:34.866Z,1237.00
2023-04-18T17:59:34.964Z,1247.00
2023-04-18T18:00:34.997Z,1250.00
2023-04-18T18:01:35.093Z,1225.00
2023-04-18T18:02:35.255Z,1237.00
2023-04-18T18:03:35.332Z,1226.00
2023-04-18T18:04:35.346Z,1216.00
2023-04-18T18:05:35.297Z,1209.00
2023-04-18T18:06:35.385Z,1214.00
2023-04-18T18:07:35.456Z,1203.00
2023-04-18T18:08:35.492Z,1216.00
2023-04-18T18:09:35.557Z,1214.00
2023-04-18T18:10:35.614Z,1209.00
2023-04-18T18:11:35.686Z,1188.00
2023-04-18T18:12:35.789Z,1198.00
2023-04-18T18:13:35.856Z,1186.00
2023-04-18T18:14:35.895Z,1186.00
2023-04-18T18:15:35.942Z,1198.00
2023-04-18T18:16:36.034Z,1189.00
2023-04-18T18:17:36.121Z,1202.00
2023-04-18T18:18:36.113Z,1191.00
2023-04-18T18:19:36.179Z,1181.00
2023-04-18T18:20:36.234Z,1193.00
2023-04-18T18:21:36.250Z,1178.00
2023-04-18T18:22:36.303Z,1189.00
2023-04-18T18:23:36.409Z,1201.00
2023-04-18T18:24:36.379Z,1181.00
2023-04-18T18:25:36.448Z,1237.00
2023-04-18T18:26:36.492Z,1255.00
2023-04-18T18:27:36.520Z,1259.00
2023-04-18T18:28:36.572Z,1264.00
2023-04-18T18:29:36.662Z,1262.00
2023-04-18T18:30:36.698Z,1268.00
2023-04-18T18:31:36.802Z,1310.00
2023-04-18T18:32:36.820Z,1308.00
2023-04-18T18:33:36.898Z,1294.00
2023-04-18T18:34:36.922Z,1306.00
2023-04-18T18:35:37.116Z,1320.00
2023-04-18T18:36:37.098Z,1304.00
2023-04-18T18:37:37.143Z,1307.00
2023-04-18T18:38:37.167Z,1300.00
2023-04-18T18:39:37.224Z,1336.00
2023-04-18T18:40:37.274Z,1358.00
2023-04-18T18:41:37.310Z,1356.00
2023-04-18T18:42:37.427Z,1349.00
2023-04-18T18:43:37.419Z,1349.00
2023-04-18T18:44:37.450Z,1398.00
2023-04-18T18:45:37.500Z,1398.00
2023-04-18T18:46:37.560Z,1393.00
2023-04-18T18:47:39.841Z,1420.00
2023-04-18T18:48:37.813Z,1433.00
2023-04-18T18:49:37.856Z,1419.00
2023-04-18T18:50:37.875Z,1439.00
2023-04-18T18:51:37.936Z,1433.00
2023-04-18T18:52:37.949Z,1431.00
2023-04-18T18:53:40.350Z,1453.00
2023-04-18T18:54:37.957Z,1460.00
2023-04-18T18:55:37.943Z,1476.00
2023-04-18T18:56:37.914Z,1476.00
2023-04-18T18:57:37.923Z,1481.00
2023-04-18T18:58:37.920Z,1493.00
2023-04-18T18:59:37.890Z,1484.00
2023-04-18T19:00:37.867Z,1496.00
2023-04-18T19:01:38.000Z,1491.00
2023-04-18T19:02:38.286Z,1511.00
2023-04-18T19:03:38.022Z,1510.00
2023-04-18T19:04:37.966Z,1466.00
2023-04-18T19:05:37.858Z,1447.00
2023-04-18T19:06:37.884Z,1428.00
2023-04-18T19:07:37.853Z,1422.00
2023-04-18T19:08:37.855Z,1432.00
2023-04-18T19:09:37.822Z,1439.00
2023-04-18T19:10:37.929Z,1439.00
2023-04-18T19:11:37.847Z,1435.00
2023-04-18T19:12:37.831Z,1442.00
2023-04-18T19:13:37.837Z,1452.00
2023-04-18T19:14:37.803Z,1456.00
2023-04-18T19:15:37.816Z,1432.00
2023-04-18T19:16:37.926Z,1433.00
2023-04-18T19:17:44.949Z,1430.00
2023-04-18T19:18:37.839Z,1433.00
2023-04-18T19:19:37.789Z,1435.00
2023-04-18T19:20:37.777Z,1435.00
2023-04-18T19:21:37.835Z,1425.00
2023-04-18T19:22:37.774Z,1421.00
2023-04-18T19:23:37.880Z,1425.00
2023-04-18T19:24:37.748Z,1401.00
2023-04-18T19:25:37.730Z,1410.00
2023-04-18T19:26:37.792Z,1401.00
2023-04-18T19:27:37.800Z,1402.00
2023-04-18T19:28:37.731Z,1390.00
2023-04-18T19:29:37.682Z,1370.00
2023-04-18T19:30:37.694Z,1389.00
2023-04-18T19:31:37.751Z,1386.00
2023-04-18T19:32:37.725Z,1377.00
2023-04-18T19:33:37.689Z,1369.00
2023-04-18T19:34:37.675Z,1371.00
2023-04-18T19:35:38.072Z,1350.00
2023-04-18T19:36:37.674Z,1357.00
2023-04-18T19:37:37.653Z,1348.00
2023-04-18T19:38:37.725Z,1336.00
2023-04-18T19:39:37.633Z,1324.00
2023-04-18T19:40:37.686Z,1337.00
2023-04-18T19:41:37.691Z,1322.00
2023-04-18T19:42:37.603Z,1313.00
2023-04-18T19:43:37.637Z,1329.00
2023-04-18T19:44:37.617Z,1329.00
2023-04-18T19:45:37.719Z,1328.00
2023-04-18T19:46:37.611Z,1315.00
2023-04-18T19:47:37.631Z,1325.00
2023-04-18T19:48:37.843Z,1318.00
2023-04-18T19:49:37.745Z,1317.00
2023-04-18T19:50:37.750Z,1319.00
2023-04-18T19:51:37.805Z,1322.00
2023-04-18T19:52:37.846Z,1316.00
2023-04-18T19:53:37.997Z,1308.00
2023-04-18T19:54:37.928Z,1302.00
2023-04-18T19:55:37.966Z,1323.00
2023-04-18T19:56:38.090Z,1304.00
2023-04-18T19:57:38.106Z,1315.00
2023-04-18T19:58:38.320Z,1296.00
2023-04-18T19:59:38.164Z,1300.00
2023-04-18T20:00:38.224Z,1301.00
2023-04-18T20:01:38.332Z,1307.00
2023-04-18T20:02:38.466Z,1294.00
2023-04-18T20:03:38.602Z,1295.00
2023-04-18T20:04:38.481Z,1276.00
2023-04-18T20:05:38.588Z,1287.00
2023-04-18T20:06:38.530Z,1286.00
2023-04-18T20:07:38.569Z,1267.00
2023-04-18T20:08:38.596Z,1263.00
2023-04-18T20:09:38.703Z,1260.00
2023-04-18T20:10:38.706Z,1261.00
2023-04-18T20:11:38.769Z,1253.00
2023-04-18T20:12:38.772Z,1239.00
2023-04-18T20:13:38.845Z,1248.00
2023-04-18T20:14:38.947Z,1241.00
2023-04-18T20:15:38.934Z,1246.00
2023-04-18T20:16:39.103Z,1240.00
2023-04-18T20:17:39.038Z,1228.00
2023-04-18T20:18:39.174Z,1242.00
2023-04-18T20:19:39.173Z,1240.00
2023-04-18T20:20:39.188Z,1230.00
2023-04-18T20:21:39.234Z,1230.00
2023-04-18T20:22:39.298Z,1216.00
2023-04-18T20:23:39.743Z,1218.00
2023-04-18T20:24:39.544Z,1221.00
2023-04-18T20:25:39.418Z,1220.00
2023-04-18T20:26:39.540Z,1210.00
2023-04-18T20:27:39.551Z,1209.00
2023-04-18T20:28:39.595Z,1223.00
2023-04-18T20:29:39.612Z,1221.00
2023-04-18T20:30:39.680Z,1206.00
2023-04-18T20:31:39.709Z,1219.00
2023-04-18T20:32:39.863Z,1202.00
2023-04-18T20:33:39.999Z,1216.00
2023-04-18T20:34:39.887Z,1218.00
2023-04-18T20:35:39.885Z,1195.00
2023-04-18T20:36:39.965Z,1195.00
2023-04-18T20:37:40.034Z,1210.00
2023-04-18T20:38:40.266Z,1195.00
2023-04-18T20:39:40.145Z,1194.00
2023-04-18T20:40:40.166Z,1205.00
2023-04-18T20:41:40.282Z,1193.00
2023-04-18T20:42:40.415Z,1202.00
2023-04-18T20:43:40.358Z,1185.00
2023-04-18T20:44:40.399Z,1182.00
2023-04-18T20:45:40.519Z,1174.00
2023-04-18T20:46:40.566Z,1187.00
2023-04-18T20:47:40.611Z,1178.00
2023-04-18T20:48:40.670Z,1183.00
2023-04-18T20:49:40.718Z,1190.00
2023-04-18T20:50:40.703Z,1162.00
2023-04-18T20:51:40.805Z,1174.00
2023-04-18T20:52:40.830Z,1179.00
2023-04-18T20:53:40.927Z,1158.00
2023-04-18T20:54:40.959Z,1158.00
2023-04-18T20:55:41.029Z,1174.00
2023-04-18T20:56:41.064Z,1170.00
2023-04-18T20:57:41.163Z,1177.00
2023-04-18T20:58:41.170Z,1162.00
2023-04-18T20:59:41.287Z,1170.00
2023-04-18T21:00:41.341Z,1154.00
2023-04-18T21:01:41.480Z,1157.00
2023-04-18T21:02:41.581Z,1159.00
2023-04-18T21:03:41.591Z,1152.00
2023-04-18T21:04:41.805Z,1153.00
2023-04-18T21:05:41.598Z,1154.00
2023-04-18T21:06:41.617Z,1148.00
2023-04-18T21:07:42.249Z,1151.00
2023-04-18T21:08:41.886Z,1154.00
2023-04-18T21:09:41.770Z,1150.00
2023-04-18T21:10:41.873Z,1142.00
2023-04-18T21:11:41.915Z,1140.00
2023-04-18T21:12:41.932Z,1142.00
2023-04-18T21:13:42.036Z,1141.00
2023-04-18T21:14:42.052Z,1138.00
2023-04-18T21:15:42.271Z,1148.00
2023-04-18T21:16:42.238Z,1132.00
2023-04-18T21:17:42.222Z,1140.00
2023-04-18T21:18:42.364Z,1146.00
2023-04-18T21:19:42.347Z,1122.00
2023-04-18T21:20:42.386Z,1122.00
2023-04-18T21:21:42.429Z,1127.00
2023-04-18T21:22:42.461Z,1119.00
2023-04-18T21:23:42.609Z,1133.00
2023-04-18T21:24:42.574Z,1110.00
2023-04-18T21:25:42.640Z,1112.00
2023-04-18T21:26:42.747Z,1116.00
2023-04-18T21:27:42.791Z,1109.00
2023-04-18T21:28:43.021Z,1135.00
2023-04-18T21:29:42.923Z,1116.00
2023-04-18T21:30:42.972Z,1121.00
2023-04-18T21:31:43.066Z,1104.00
2023-04-18T21:32:43.086Z,1113.00
2023-04-18T21:33:43.128Z,1114.00
2023-04-18T21:34:43.152Z,1106.00
2023-04-18T21:35:43.268Z,1103.00
2023-04-18T21:36:43.293Z,1107.00
2023-04-18T21:37:43.419Z,1102.00
2023-04-18T21:38:43.536Z,1108.00
2023-04-18T21:39:43.504Z,1099.00
2023-04-18T21:40:43.536Z,1099.00
2023-04-18T21:41:43.633Z,1090.00
2023-04-18T21:42:43.673Z,1081.00
2023-04-18T21:43:43.784Z,1085.00
2023-04-18T21:44:43.765Z,1099.00
2023-04-18T21:45:43.897Z,1091.00
2023-04-18T21:46:43.886Z,1088.00
2023-04-18T21:47:44.037Z,1080.00
2023-04-18T21:48:44.000Z,1075.00
2023-04-18T21:49:44.019Z,1089.00
2023-04-18T21:50:44.081Z,1077.00
2023-04-18T21:51:44.162Z,1074.00
2023-04-18T21:52:44.224Z,1081.00
2023-04-18T21:53:44.329Z,1061.00
2023-04-18T21:54:44.325Z,1077.00
2023-04-18T21:55:44.380Z,1053.00
2023-04-18T21:56:44.479Z,1078.00
2023-04-18T21:57:44.560Z,1057.00
2023-04-18T21:58:44.618Z,1064.00
2023-04-18T21:59:44.610Z,1053.00
2023-04-18T22:00:44.704Z,1062.00
2023-04-18T22:01:44.719Z,1066.00
2023-04-18T22:02:44.917Z,1056.00
2023-04-18T22:03:45.100Z,1052.00
2023-04-18T22:04:44.958Z,1060.00
2023-04-18T22:05:45.006Z,1072.00
2023-04-18T22:06:45.066Z,1059.00
2023-04-18T22:07:54.987Z,1066.00
2023-04-18T22:08:46.109Z,1067.00
2023-04-18T22:09:45.076Z,1060.00
2023-04-18T22:10:45.110Z,1054.00
2023-04-18T22:11:45.095Z,1067.00
2023-04-18T22:12:45.085Z,1056.00
2023-04-18T22:13:45.169Z,1050.00
2023-04-18T22:14:45.021Z,1043.00
2023-04-18T22:15:45.068Z,1042.00
2023-04-18T22:16:45.176Z,1044.00
2023-04-18T22:17:45.289Z,1040.00
2023-04-18T22:18:45.258Z,1047.00
2023-04-18T22:19:45.303Z,1039.00
2023-04-18T22:20:45.360Z,1047.00
2023-04-18T22:21:45.421Z,1032.00
2023-04-18T22:22:45.531Z,1044.00
2023-04-18T22:23:45.539Z,1035.00
2023-04-18T22:24:47.637Z,1047.00
2023-04-18T22:25:45.662Z,1025.00
2023-04-18T22:26:45.723Z,1024.00
2023-04-18T22:27:45.824Z,1031.00
2023-04-18T22:28:45.849Z,1037.00
2023-04-18T22:29:45.937Z,1028.00
2023-04-18T22:30:46.017Z,1024.00
2023-04-18T22:31:46.057Z,1022.00
2023-04-18T22:32:46.130Z,1017.00
2023-04-18T22:33:46.164Z,1019.00
2023-04-18T22:34:46.237Z,1034.00
2023-04-18T22:35:46.278Z,1013.00